createdAt,value
2022-10-20T00:06:25.710Z,0.00
2022-10-20T00:21:25.887Z,0.00
2022-10-20T00:36:26.443Z,0.00
2022-10-20T00:51:26.590Z,0.00
2022-10-20T01:06:26.701Z,0.00
2022-10-20T01:21:27.819Z,0.00
2022-10-20T01:36:27.442Z,0.00
2022-10-20T01:51:28.092Z,0.00
2022-10-20T02:06:29.174Z,0.00
2022-10-20T02:21:28.801Z,0.00
2022-10-20T02:36:29.380Z,0.00
2022-10-20T02:51:29.041Z,0.00
2022-10-20T03:06:29.647Z,0.00
2022-10-20T03:21:29.781Z,0.00
2022-10-20T03:36:30.377Z,0.00
2022-10-20T03:51:30.516Z,0.00
2022-10-20T04:06:30.680Z,0.00
2022-10-20T04:21:31.239Z,0.00
2022-10-20T04:36:30.868Z,0.00
2022-10-20T04:51:31.028Z,0.00
2022-10-20T05:06:31.108Z,0.00
2022-10-20T05:21:31.306Z,16.00
2022-10-20T05:36:32.629Z,132.00
2022-10-20T05:51:32.785Z,464.00
2022-10-20T06:06:34.112Z,804.00
2022-10-20T06:21:36.608Z,1344.00
2022-10-20T06:36:37.159Z,1944.00
2022-10-20T06:51:36.804Z,2648.00
2022-10-20T07:06:38.708Z,3284.00
2022-10-20T07:21:41.756Z,3656.00
2022-10-20T07:36:46.204Z,4004.00
2022-10-20T07:51:46.328Z,4548.00
2022-10-20T08:06:46.963Z,10104.00
2022-10-20T08:21:47.547Z,19680.00
2022-10-20T08:36:49.413Z,21120.00
2022-10-20T08:51:50.243Z,32384.00
2022-10-20T09:06:50.366Z,31584.00
2022-10-20T09:21:52.239Z,45312.00
2022-10-20T09:36:52.814Z,50688.00
2022-10-20T10:06:53.034Z,54016.00
2022-10-20T10:21:53.160Z,67296.00
2022-10-20T10:36:53.248Z,65472.00
2022-10-20T10:51:53.482Z,62976.00
2022-10-20T11:06:57.081Z,76608.00
2022-10-20T11:21:59.806Z,81056.00
2022-10-20T11:37:01.428Z,87424.00
2022-10-20T11:52:03.329Z,99328.00
2022-10-20T12:07:04.676Z,73728.00
2022-10-20T12:22:06.018Z,61376.00
2022-10-20T12:37:07.492Z,88736.00
2022-10-20T12:52:09.251Z,84192.00
2022-10-20T13:07:09.388Z,99072.00
2022-10-20T13:22:10.382Z,80800.00
2022-10-20T13:37:10.856Z,23584.00
2022-10-20T13:52:11.718Z,8392.00
2022-10-20T14:07:12.154Z,18272.00
2022-10-20T14:22:13.977Z,9940.00
2022-10-20T14:37:15.829Z,7816.00
2022-10-20T14:52:20.349Z,27552.00
2022-10-20T15:07:21.366Z,4356.00
2022-10-20T15:22:21.425Z,2412.00
2022-10-20T15:37:21.525Z,1320.00
2022-10-20T15:52:22.129Z,512.00
2022-10-20T16:07:22.743Z,132.00
2022-10-20T16:22:24.192Z,16.00
2022-10-20T16:37:24.911Z,0.00
2022-10-20T16:52:25.128Z,0.00
2022-10-20T17:07:27.453Z,0.00
2022-10-20T17:22:28.811Z,0.00
2022-10-20T17:37:29.708Z,0.00
2022-10-20T17:52:29.893Z,0.00
2022-10-20T18:07:31.250Z,0.00
2022-10-20T18:22:32.610Z,0.00
2022-10-20T18:37:33.210Z,0.00
2022-10-20T18:52:33.604Z,4.00
2022-10-20T19:07:34.989Z,0.00
2022-10-20T19:22:37.054Z,4.00
2022-10-20T19:37:37.654Z,0.00
2022-10-20T19:52:38.630Z,0.00
2022-10-20T20:07:39.649Z,0.00
2022-10-20T20:22:41.338Z,0.00
2022-10-20T20:37:42.204Z,0.00
2022-10-20T20:52:42.303Z,0.00
2022-10-20T21:07:42.402Z,0.00
2022-10-20T21:22:43.037Z,0.00
2022-10-20T21:37:43.145Z,0.00
2022-10-20T21:52:43.310Z,0.00
2022-10-20T22:07:43.891Z,0.00
2022-10-20T22:22:43.518Z,0.00
2022-10-20T22:37:43.621Z,0.00
2022-10-20T22:52:43.798Z,0.00
2022-10-20T23:07:43.948Z,0.00
2022-10-20T23:22:44.109Z,0.00
2022-10-20T23:37:44.701Z,0.00
2022-10-20T23:52:44.854Z,0.00
